createdAt,value
2023-03-01T00:01:34.763Z,6.03
2023-03-01T00:04:24.401Z,5.83
2023-03-01T00:07:14.464Z,6.10
2023-03-01T00:10:03.925Z,5.80
2023-03-01T00:12:56.785Z,6.10
2023-03-01T00:15:46.545Z,6.10
2023-03-01T00:18:37.384Z,6.30
2023-03-01T00:21:27.978Z,6.27
2023-03-01T00:24:18.114Z,6.47
2023-03-01T00:27:08.443Z,6.00
2023-03-01T00:29:59.986Z,5.87
2023-03-01T00:32:50.397Z,6.27
2023-03-01T00:35:44.187Z,5.80
2023-03-01T00:38:37.957Z,5.90
2023-03-01T00:41:29.674Z,6.27
2023-03-01T00:44:19.498Z,6.23
2023-03-01T00:47:11.771Z,5.77
2023-03-01T00:50:01.729Z,6.40
2023-03-01T00:52:57.385Z,5.87
2023-03-01T00:55:46.750Z,6.47
2023-03-01T00:58:37.725Z,6.23
2023-03-01T01:01:32.641Z,6.23
2023-03-01T01:04:24.409Z,6.33
2023-03-01T01:07:16.501Z,5.80
2023-03-01T01:10:07.837Z,6.50
2023-03-01T01:12:58.473Z,6.73
2023-03-01T01:15:48.785Z,5.97
2023-03-01T01:18:39.096Z,6.13
2023-03-01T01:21:31.829Z,6.10
2023-03-01T01:24:24.728Z,5.50
2023-03-01T01:27:14.931Z,6.73
2023-03-01T01:30:05.082Z,6.27
2023-03-01T01:32:55.748Z,6.70
2023-03-01T01:35:48.068Z,6.73
2023-03-01T01:38:41.068Z,7.20
2023-03-01T01:41:31.967Z,6.13
2023-03-01T01:44:24.801Z,6.73
2023-03-01T01:47:20.236Z,6.07
2023-03-01T01:50:20.359Z,6.33
2023-03-01T01:53:15.876Z,6.77
2023-03-01T01:56:10.190Z,6.63
2023-03-01T01:59:01.288Z,6.77
2023-03-01T02:01:50.720Z,6.43
2023-03-01T02:04:40.842Z,5.83
2023-03-01T02:07:31.768Z,6.90
2023-03-01T02:13:12.253Z,6.67
2023-03-01T02:16:03.225Z,6.90
2023-03-01T02:18:53.609Z,6.73
2023-03-01T02:21:54.148Z,6.13
2023-03-01T02:24:49.532Z,6.93
2023-03-01T02:27:49.420Z,7.20
2023-03-01T02:31:01.016Z,6.27
2023-03-01T02:33:51.388Z,6.70
2023-03-01T02:36:43.728Z,7.70
2023-03-01T02:39:43.229Z,6.43
2023-03-01T02:42:44.252Z,5.93
2023-03-01T02:45:33.836Z,7.23
2023-03-01T02:48:25.141Z,7.00
2023-03-01T02:51:30.030Z,7.53
2023-03-01T02:54:27.789Z,7.07
2023-03-01T02:57:17.693Z,6.87
2023-03-01T03:00:21.812Z,7.33
2023-03-01T03:03:11.741Z,7.37
2023-03-01T03:06:02.917Z,7.80
2023-03-01T03:08:55.577Z,7.83
2023-03-01T03:11:45.828Z,7.67
2023-03-01T03:14:36.305Z,6.80
2023-03-01T03:17:25.889Z,7.43
2023-03-01T03:20:21.973Z,7.50
2023-03-01T03:23:13.437Z,8.20
2023-03-01T03:26:03.168Z,7.90
2023-03-01T03:28:52.749Z,7.47
2023-03-01T03:31:42.408Z,8.37
2023-03-01T03:34:32.241Z,7.80
2023-03-01T03:37:35.659Z,9.07
2023-03-01T03:40:27.086Z,8.53
2023-03-01T03:43:18.993Z,8.20
2023-03-01T03:46:09.431Z,7.30
2023-03-01T03:48:59.453Z,8.23
2023-03-01T03:51:52.210Z,7.87
2023-03-01T03:54:42.581Z,7.50
2023-03-01T03:57:33.687Z,7.97
2023-03-01T04:00:25.438Z,7.43
2023-03-01T04:03:17.147Z,8.10
2023-03-01T04:06:07.937Z,7.93
2023-03-01T04:09:01.447Z,7.73
2023-03-01T04:11:51.380Z,7.50
2023-03-01T04:14:42.736Z,7.80
2023-03-01T04:17:32.730Z,7.67
2023-03-01T04:20:26.372Z,7.67
2023-03-01T04:23:20.608Z,7.37
2023-03-01T04:26:10.415Z,7.10
2023-03-01T04:29:00.550Z,7.33
2023-03-01T04:31:52.390Z,7.40
2023-03-01T04:34:42.215Z,7.47
2023-03-01T04:37:32.618Z,8.07
2023-03-01T04:40:23.280Z,7.30
2023-03-01T04:43:14.226Z,7.40
2023-03-01T04:46:05.573Z,7.10
2023-03-01T04:48:57.215Z,7.70
2023-03-01T04:51:47.005Z,7.83
2023-03-01T04:54:38.051Z,6.50
2023-03-01T04:57:27.909Z,7.83
2023-03-01T05:00:24.303Z,6.90
2023-03-01T05:03:13.818Z,6.83
2023-03-01T05:06:04.848Z,6.90
2023-03-01T05:08:54.888Z,6.97
2023-03-01T05:11:44.992Z,6.83
2023-03-01T05:14:35.011Z,6.77
2023-03-01T05:17:25.937Z,6.87
2023-03-01T05:20:15.856Z,6.93
2023-03-01T05:23:08.432Z,6.80
2023-03-01T05:26:00.976Z,6.50
2023-03-01T05:28:51.400Z,7.00
2023-03-01T05:31:41.611Z,6.47
2023-03-01T05:34:32.572Z,6.63
2023-03-01T05:37:22.539Z,6.60
2023-03-01T05:40:18.116Z,7.10
2023-03-01T05:43:07.821Z,9.27
2023-03-01T05:46:03.735Z,8.37
2023-03-01T05:48:53.434Z,6.70
2023-03-01T05:51:43.940Z,7.90
2023-03-01T05:54:34.580Z,8.13
2023-03-01T05:57:25.684Z,7.10
2023-03-01T06:00:23.806Z,7.60
2023-03-01T06:03:14.823Z,9.77
2023-03-01T06:06:04.793Z,8.17
2023-03-01T06:08:54.539Z,7.60
2023-03-01T06:11:44.653Z,7.23
2023-03-01T06:14:36.311Z,12.07
2023-03-01T06:17:26.309Z,7.20
2023-03-01T06:20:18.884Z,7.77
2023-03-01T06:23:09.844Z,7.43
2023-03-01T06:26:00.431Z,8.50
2023-03-01T06:28:50.342Z,8.83
2023-03-01T06:31:41.714Z,8.43
2023-03-01T06:34:31.334Z,8.90
2023-03-01T06:37:21.501Z,9.03
2023-03-01T06:40:14.705Z,8.90
2023-03-01T06:43:05.060Z,9.57
2023-03-01T06:45:54.574Z,9.73
2023-03-01T06:48:46.036Z,8.33
2023-03-01T06:51:35.824Z,9.50
2023-03-01T06:54:25.796Z,8.10
2023-03-01T06:57:15.580Z,7.83
2023-03-01T07:00:05.510Z,8.23
2023-03-01T07:02:55.895Z,7.37
2023-03-01T07:05:47.147Z,7.90
2023-03-01T07:08:37.044Z,7.40
2023-03-01T07:11:27.188Z,7.20
2023-03-01T07:14:16.789Z,6.70
2023-03-01T07:17:06.460Z,6.77
2023-03-01T07:19:55.917Z,7.47
2023-03-01T07:22:47.125Z,7.63
2023-03-01T07:25:38.069Z,8.30
2023-03-01T07:28:27.614Z,7.83
2023-03-01T07:31:18.455Z,8.13
2023-03-01T07:34:08.298Z,7.90
2023-03-01T07:36:58.451Z,8.27
2023-03-01T07:39:49.591Z,8.43
2023-03-01T07:42:40.387Z,8.20
2023-03-01T07:45:30.372Z,8.70
2023-03-01T07:48:20.273Z,9.83
2023-03-01T07:51:10.491Z,9.23
2023-03-01T07:54:00.662Z,8.67
2023-03-01T07:56:52.836Z,9.27
2023-03-01T07:59:42.932Z,8.67
2023-03-01T08:02:33.073Z,10.27
2023-03-01T08:05:23.622Z,10.47
2023-03-01T08:08:13.808Z,9.47
2023-03-01T08:11:04.987Z,9.40
2023-03-01T08:13:56.589Z,9.37
2023-03-01T08:16:47.263Z,9.97
2023-03-01T08:19:37.754Z,9.83
2023-03-01T08:22:27.890Z,9.73
2023-03-01T08:25:17.466Z,9.47
2023-03-01T08:28:08.727Z,9.47
2023-03-01T08:31:00.687Z,9.43
2023-03-01T08:33:56.566Z,9.97
2023-03-01T08:36:48.212Z,10.40
2023-03-01T08:39:37.701Z,11.00
2023-03-01T08:42:28.614Z,10.97
2023-03-01T08:45:19.566Z,10.77
2023-03-01T08:48:11.968Z,10.77
2023-03-01T08:51:10.254Z,12.17
2023-03-01T08:54:00.109Z,10.27
2023-03-01T08:56:50.423Z,11.60
2023-03-01T08:59:40.208Z,12.33
2023-03-01T09:02:30.673Z,11.37
2023-03-01T09:05:24.114Z,11.53
2023-03-01T09:08:14.192Z,11.00
2023-03-01T09:11:05.144Z,11.03
2023-03-01T09:13:56.248Z,10.80
2023-03-01T09:16:46.586Z,9.93
2023-03-01T09:19:36.164Z,11.20
2023-03-01T09:22:37.412Z,11.07
2023-03-01T09:25:35.440Z,11.23
2023-03-01T09:28:32.690Z,10.37
2023-03-01T09:31:30.375Z,9.80
2023-03-01T09:34:24.892Z,10.43
2023-03-01T09:37:16.325Z,10.53
2023-03-01T09:40:10.220Z,9.93
2023-03-01T09:43:09.426Z,10.27
2023-03-01T09:46:02.840Z,10.27
2023-03-01T09:48:56.029Z,9.63
2023-03-01T09:51:51.059Z,11.07
2023-03-01T09:54:41.145Z,9.97
2023-03-01T09:57:39.534Z,10.10
2023-03-01T10:00:40.764Z,9.93
2023-03-01T10:03:36.565Z,10.67
2023-03-01T10:06:35.033Z,10.87
2023-03-01T10:09:25.417Z,10.67
2023-03-01T10:12:18.465Z,10.00
2023-03-01T10:15:14.792Z,9.20
2023-03-01T10:18:08.995Z,10.40
2023-03-01T10:21:02.512Z,9.63
2023-03-01T10:23:55.033Z,9.80
2023-03-01T10:26:54.663Z,9.60
2023-03-01T10:29:52.231Z,9.57
2023-03-01T10:32:43.912Z,9.43
2023-03-01T10:35:37.852Z,10.10
2023-03-01T10:38:28.539Z,10.30
2023-03-01T10:41:18.478Z,9.67
2023-03-01T10:44:08.519Z,10.30
2023-03-01T10:47:04.581Z,10.00
2023-03-01T10:50:04.362Z,9.63
2023-03-01T10:53:07.239Z,9.80
2023-03-01T10:56:08.688Z,9.73
2023-03-01T10:59:02.354Z,10.47
2023-03-01T11:02:15.046Z,10.43
2023-03-01T11:09:17.580Z,10.23
2023-03-01T11:12:17.602Z,10.10
2023-03-01T11:18:47.795Z,11.03
2023-03-01T11:21:42.304Z,11.00
2023-03-01T11:24:43.474Z,10.13
2023-03-01T11:27:38.222Z,11.83
2023-03-01T11:30:33.670Z,10.23
2023-03-01T11:33:34.539Z,10.33
2023-03-01T11:36:32.031Z,10.20
2023-03-01T11:39:31.065Z,10.13
2023-03-01T11:42:27.858Z,9.90
2023-03-01T11:45:18.592Z,9.57
2023-03-01T11:48:40.008Z,8.43
2023-03-01T11:51:49.408Z,7.97
2023-03-01T11:54:53.829Z,8.47
2023-03-01T11:58:02.213Z,9.80
2023-03-01T12:01:05.866Z,9.97
2023-03-01T12:04:18.368Z,9.80
2023-03-01T12:07:13.680Z,9.40
2023-03-01T12:10:28.697Z,10.03
2023-03-01T12:13:49.470Z,9.83
2023-03-01T12:16:54.657Z,9.77
2023-03-01T12:20:12.516Z,9.73
2023-03-01T12:23:31.158Z,9.60
2023-03-01T12:26:39.061Z,11.07
2023-03-01T12:29:37.311Z,10.00
2023-03-01T12:32:38.626Z,10.03
2023-03-01T12:35:51.204Z,12.23
2023-03-01T12:38:45.041Z,10.50
2023-03-01T12:41:49.319Z,11.03
2023-03-01T12:45:17.760Z,11.67
2023-03-01T12:48:21.690Z,12.00
2023-03-01T12:51:16.337Z,11.80
2023-03-01T12:54:17.512Z,11.20
2023-03-01T12:57:15.927Z,10.97
2023-03-01T13:00:25.212Z,11.63
2023-03-01T13:03:27.313Z,11.20
2023-03-01T13:06:32.227Z,11.47
2023-03-01T13:09:33.758Z,12.80
2023-03-01T13:12:45.374Z,11.97
2023-03-01T13:15:40.976Z,10.77
2023-03-01T13:18:35.925Z,13.17
2023-03-01T13:21:34.576Z,13.63
2023-03-01T13:24:29.475Z,11.90
2023-03-01T13:27:30.830Z,11.93
2023-03-01T13:30:45.808Z,11.43
2023-03-01T13:33:47.855Z,10.40
2023-03-01T13:36:51.797Z,10.33
2023-03-01T13:39:44.316Z,10.27
2023-03-01T13:42:59.236Z,10.07
2023-03-01T13:45:57.028Z,10.73
2023-03-01T13:48:49.111Z,11.33
2023-03-01T13:51:39.551Z,11.67
2023-03-01T13:54:32.360Z,12.20
2023-03-01T13:57:26.872Z,13.00
2023-03-01T14:00:32.077Z,11.83
2023-03-01T14:03:24.117Z,12.40
2023-03-01T14:06:20.925Z,11.10
2023-03-01T14:09:19.014Z,11.67
2023-03-01T14:12:26.008Z,10.20
2023-03-01T14:15:22.193Z,10.53
2023-03-01T14:18:16.168Z,10.50
2023-03-01T14:21:12.090Z,9.33
2023-03-01T14:24:02.673Z,10.00
2023-03-01T14:26:53.186Z,9.53
2023-03-01T14:29:43.757Z,9.70
2023-03-01T14:32:35.419Z,9.20
2023-03-01T14:35:26.417Z,8.70
2023-03-01T14:38:27.273Z,9.10
2023-03-01T14:41:19.392Z,8.87
2023-03-01T14:44:15.374Z,9.00
2023-03-01T14:47:05.419Z,9.17
2023-03-01T14:50:00.078Z,8.60
2023-03-01T14:52:52.358Z,9.60
2023-03-01T14:55:47.713Z,9.23
2023-03-01T14:58:37.820Z,10.43
2023-03-01T15:01:27.798Z,9.37
2023-03-01T15:04:18.147Z,9.73
2023-03-01T15:07:08.275Z,9.30
2023-03-01T15:09:58.156Z,9.73
2023-03-01T15:12:49.517Z,9.23
2023-03-01T15:15:44.432Z,9.87
2023-03-01T15:18:34.700Z,9.80
2023-03-01T15:21:27.498Z,9.80
2023-03-01T15:24:22.937Z,8.97
2023-03-01T15:27:20.067Z,9.37
2023-03-01T15:30:21.961Z,9.83
2023-03-01T15:33:30.564Z,9.67
2023-03-01T15:36:36.483Z,9.50
2023-03-01T15:39:44.724Z,9.47
2023-03-01T15:42:49.058Z,10.23
2023-03-01T15:45:48.379Z,9.13
2023-03-01T15:48:39.152Z,10.07
2023-03-01T15:51:37.471Z,11.07
2023-03-01T15:54:32.994Z,10.37
2023-03-01T15:57:23.665Z,10.10
2023-03-01T16:00:15.835Z,10.17
2023-03-01T16:03:08.629Z,11.10
2023-03-01T16:06:00.307Z,11.33
2023-03-01T16:08:50.080Z,10.17
2023-03-01T16:11:41.701Z,9.37
2023-03-01T16:14:32.762Z,10.27
2023-03-01T16:17:24.249Z,9.90
2023-03-01T16:20:27.326Z,10.53
2023-03-01T16:23:18.699Z,10.43
2023-03-01T16:26:08.456Z,9.23
2023-03-01T16:29:00.000Z,9.10
2023-03-01T16:31:51.172Z,9.77
2023-03-01T16:34:43.361Z,8.47
2023-03-01T16:37:38.274Z,8.57
2023-03-01T16:40:33.278Z,8.00
2023-03-01T16:43:23.670Z,8.40
2023-03-01T16:46:14.530Z,8.50
2023-03-01T16:49:05.054Z,8.33
2023-03-01T16:51:56.825Z,7.90
2023-03-01T16:54:49.080Z,9.03
2023-03-01T16:57:39.752Z,8.50
2023-03-01T17:00:30.466Z,8.83
2023-03-01T17:03:20.013Z,8.17
2023-03-01T17:06:13.552Z,8.77
2023-03-01T17:09:05.064Z,8.97
2023-03-01T17:11:58.473Z,9.27
2023-03-01T17:14:50.069Z,8.93
2023-03-01T17:17:41.233Z,9.13
2023-03-01T17:20:31.454Z,8.67
2023-03-01T17:23:21.264Z,8.63
2023-03-01T17:26:11.521Z,12.63
2023-03-01T17:29:04.273Z,10.47
2023-03-01T17:31:57.669Z,8.33
2023-03-01T17:34:50.781Z,9.10
2023-03-01T17:37:47.361Z,9.00
2023-03-01T17:40:40.877Z,8.70
2023-03-01T17:43:31.794Z,8.90
2023-03-01T17:46:25.268Z,9.63
2023-03-01T17:49:18.327Z,9.00
2023-03-01T17:52:08.587Z,8.87
2023-03-01T17:55:02.401Z,8.67
2023-03-01T17:57:57.673Z,8.77
2023-03-01T18:00:48.133Z,9.17
2023-03-01T18:03:42.035Z,8.47
2023-03-01T18:06:33.542Z,8.80
2023-03-01T18:09:24.197Z,9.60
2023-03-01T18:12:15.428Z,8.50
2023-03-01T18:15:09.128Z,9.33
2023-03-01T18:18:00.202Z,8.97
2023-03-01T18:21:01.402Z,9.43
2023-03-01T18:24:01.397Z,8.63
2023-03-01T18:26:51.721Z,8.80
2023-03-01T18:29:41.752Z,9.30
2023-03-01T18:32:33.281Z,9.60
2023-03-01T18:35:27.504Z,9.33
2023-03-01T18:38:22.571Z,9.23
2023-03-01T18:41:17.672Z,9.50
2023-03-01T18:44:12.780Z,9.33
2023-03-01T18:47:04.430Z,9.57
2023-03-01T18:49:55.424Z,9.70
2023-03-01T18:52:47.029Z,10.37
2023-03-01T18:55:44.651Z,11.30
2023-03-01T18:58:39.598Z,10.77
2023-03-01T19:01:38.069Z,10.07
2023-03-01T19:04:30.366Z,11.77
2023-03-01T19:07:27.986Z,11.63
2023-03-01T19:10:24.202Z,12.30
2023-03-01T19:13:33.365Z,12.47
2023-03-01T19:16:34.681Z,13.97
2023-03-01T19:19:33.018Z,14.00
2023-03-01T19:22:33.398Z,13.40
2023-03-01T19:25:30.266Z,12.93
2023-03-01T19:28:31.434Z,13.50
2023-03-01T19:31:29.445Z,12.73
2023-03-01T19:34:26.584Z,12.70
2023-03-01T19:37:22.037Z,11.30
2023-03-01T19:40:18.233Z,11.83
2023-03-01T19:43:14.820Z,13.07
2023-03-01T19:46:14.621Z,13.13
2023-03-01T19:49:11.401Z,12.30
2023-03-01T19:52:07.871Z,12.77
2023-03-01T19:55:09.013Z,13.33
2023-03-01T19:58:01.307Z,13.70
2023-03-01T20:01:00.887Z,14.50
2023-03-01T20:03:53.822Z,13.57
2023-03-01T20:06:58.083Z,13.00
2023-03-01T20:09:48.984Z,13.47
2023-03-01T20:12:43.232Z,13.40
2023-03-01T20:15:36.049Z,15.00
2023-03-01T20:18:27.547Z,13.67
2023-03-01T20:21:25.059Z,13.97
2023-03-01T20:24:17.028Z,12.60
2023-03-01T20:27:08.304Z,12.90
2023-03-01T20:30:01.067Z,12.77
2023-03-01T20:32:52.725Z,11.93
2023-03-01T20:35:46.546Z,13.03
2023-03-01T20:38:40.446Z,12.77
2023-03-01T20:41:32.903Z,12.80
2023-03-01T20:44:24.467Z,13.53
2023-03-01T20:47:17.703Z,13.13
2023-03-01T20:50:09.188Z,14.00
2023-03-01T20:53:00.248Z,14.77
2023-03-01T20:55:53.150Z,13.80
2023-03-01T20:58:45.334Z,14.83
2023-03-01T21:01:36.675Z,14.13
2023-03-01T21:04:30.306Z,13.93
2023-03-01T21:07:20.210Z,14.63
2023-03-01T21:10:12.167Z,15.37
2023-03-01T21:13:03.554Z,14.17
2023-03-01T21:15:56.991Z,14.10
2023-03-01T21:18:47.109Z,14.27
2023-03-01T21:21:39.280Z,14.27
2023-03-01T21:24:32.462Z,13.93
2023-03-01T21:27:22.404Z,14.57
2023-03-01T21:30:15.425Z,13.43
2023-03-01T21:33:11.934Z,14.10
2023-03-01T21:36:05.482Z,14.17
2023-03-01T21:38:56.792Z,14.10
2023-03-01T21:41:46.915Z,14.53
2023-03-01T21:44:36.389Z,14.03
2023-03-01T21:47:27.613Z,15.67
2023-03-01T21:50:17.350Z,14.67
2023-03-01T21:53:07.111Z,14.93
2023-03-01T21:55:56.592Z,13.67
2023-03-01T21:58:46.245Z,16.57
2023-03-01T22:01:42.872Z,19.43
2023-03-01T22:04:34.023Z,19.33
2023-03-01T22:07:24.169Z,16.73
2023-03-01T22:10:14.474Z,18.17
2023-03-01T22:13:04.425Z,16.63
2023-03-01T22:15:54.126Z,16.53
2023-03-01T22:18:43.782Z,17.47
2023-03-01T22:21:35.229Z,14.83
2023-03-01T22:24:26.646Z,12.97
2023-03-01T22:27:16.103Z,13.30
2023-03-01T22:30:07.354Z,12.33
2023-03-01T22:32:57.394Z,11.73
2023-03-01T22:35:47.510Z,12.67
2023-03-01T22:38:40.017Z,13.43
2023-03-01T22:41:30.134Z,10.90
2023-03-01T22:44:23.011Z,10.23
2023-03-01T22:47:13.423Z,11.53
2023-03-01T22:50:03.025Z,10.70
2023-03-01T22:52:52.852Z,11.10
2023-03-01T22:55:44.580Z,10.73
2023-03-01T22:58:34.192Z,10.73
2023-03-01T23:01:24.912Z,11.53
2023-03-01T23:04:14.660Z,12.40
2023-03-01T23:07:04.352Z,12.43
2023-03-01T23:09:54.871Z,12.33
2023-03-01T23:12:46.031Z,11.83
2023-03-01T23:15:35.770Z,12.00
2023-03-01T23:18:25.414Z,12.20
2023-03-01T23:21:16.972Z,12.27
2023-03-01T23:24:07.461Z,10.70
2023-03-01T23:26:57.012Z,12.07
2023-03-01T23:29:48.233Z,13.93
2023-03-01T23:32:41.118Z,12.50
2023-03-01T23:35:30.715Z,14.47
2023-03-01T23:38:21.095Z,17.67
2023-03-01T23:41:12.007Z,15.50
2023-03-01T23:44:03.445Z,13.83
2023-03-01T23:46:54.585Z,13.87
2023-03-01T23:49:44.208Z,13.93
2023-03-01T23:52:40.644Z,13.27
2023-03-01T23:55:31.380Z,12.53
2023-03-01T23:58:31.067Z,13.37
